Time;durP1;ratioP1;P1;durP2;ratioP2;P2;SDS_P1;SDS_P2;PMS_P1;PMS_P2;Temp;Humidity;BMP_temperature;BMP_pressure;BME280_temperature;BME280_humidity;BME280_pressure;Samples;Min_cycle;Max_cycle;Signal;HPM_P1;HPM_P2
2021/10/22 00:00:09;;;;;;;16.10;9.00;;;10.80;99.90;;;;;;5047354;28;20165;-75
2021/10/22 00:02:35;;;;;;;4.28;3.53;;;10.80;99.90;;;;;;5029444;28;20216;-78
2021/10/22 00:05:01;;;;;;;20.92;12.27;;;10.80;99.90;;;;;;5047224;28;20265;-78
2021/10/22 00:07:27;;;;;;;8.02;3.95;;;10.80;99.90;;;;;;5031722;28;20180;-78
2021/10/22 00:09:55;;;;;;;11.75;5.80;;;10.70;99.90;;;;;;5033224;28;20193;-77
2021/10/22 00:12:21;;;;;;;8.23;3.33;;;10.60;99.90;;;;;;5050877;28;20195;-77
2021/10/22 00:14:47;;;;;;;2.97;2.25;;;10.60;99.90;;;;;;5032805;28;20220;-77
2021/10/22 00:17:13;;;;;;;16.92;10.05;;;10.50;99.90;;;;;;5050963;28;20184;-77
2021/10/22 00:19:39;;;;;;;14.18;7.80;;;10.40;99.90;;;;;;5050949;28;20169;-77
2021/10/22 00:22:05;;;;;;;17.52;9.55;;;10.40;99.90;;;;;;5051168;28;20150;-78
2021/10/22 00:24:31;;;;;;;6.40;3.05;;;10.40;99.90;;;;;;5050760;28;20248;-79
2021/10/22 00:26:57;;;;;;;9.63;7.13;;;10.40;99.90;;;;;;5033276;28;20223;-78
2021/10/22 00:29:24;;;;;;;21.25;12.32;;;10.30;99.90;;;;;;5051627;28;20169;-77
2021/10/22 00:31:50;;;;;;;24.40;14.70;;;10.30;99.90;;;;;;5051224;28;20221;-78
2021/10/22 00:34:16;;;;;;;14.25;8.98;;;10.20;99.90;;;;;;5032835;28;20196;-77
2021/10/22 00:36:42;;;;;;;16.15;10.93;;;10.10;99.90;;;;;;5048698;28;20713;-77
2021/10/22 00:39:09;;;;;;;4.65;2.38;;;10.10;99.90;;;;;;5050540;28;20192;-77
2021/10/22 00:41:37;;;;;;;7.00;3.67;;;10.20;99.90;;;;;;5050407;28;20177;-77
2021/10/22 00:44:03;;;;;;;5.75;4.05;;;10.10;99.90;;;;;;5032209;28;20212;-77
2021/10/22 00:46:29;;;;;;;16.73;9.85;;;10.10;99.90;;;;;;5049999;28;20196;-77
2021/10/22 00:48:57;;;;;;;12.88;7.60;;;10.00;99.90;;;;;;5032234;28;20165;-77
2021/10/22 00:51:24;;;;;;;44.03;23.13;;;9.90;99.90;;;;;;5032139;28;20237;-77
2021/10/22 00:53:51;;;;;;;54.53;28.60;;;9.80;99.90;;;;;;5050033;28;20225;-77
2021/10/22 00:56:16;;;;;;;38.33;19.92;;;9.80;99.90;;;;;;5032241;28;20197;-77
2021/10/22 00:58:43;;;;;;;49.65;27.00;;;9.80;99.90;;;;;;5050000;28;20188;-78
2021/10/22 01:01:09;;;;;;;30.35;15.02;;;9.70;99.90;;;;;;5050039;28;20200;-77
2021/10/22 01:03:36;;;;;;;15.18;8.93;;;9.60;99.90;;;;;;5049820;28;20216;-75
2021/10/22 01:06:03;;;;;;;15.48;9.35;;;9.70;99.90;;;;;;5049847;28;20271;-75
2021/10/22 01:08:30;;;;;;;6.85;4.22;;;9.70;99.90;;;;;;5050067;28;20158;-78
2021/10/22 01:10:59;;;;;;;8.50;2.83;;;9.70;99.90;;;;;;5050479;28;20177;-78
2021/10/22 01:13:25;;;;;;;3.88;1.95;;;9.70;99.90;;;;;;5033017;28;20234;-77
2021/10/22 01:15:51;;;;;;;3.00;1.30;;;9.80;99.90;;;;;;5050229;28;20253;-77
2021/10/22 01:18:17;;;;;;;3.60;2.10;;;9.80;99.90;;;;;;5048972;28;20248;-77
2021/10/22 01:20:44;;;;;;;2.25;1.58;;;9.80;99.90;;;;;;5049762;28;20182;-77
2021/10/22 01:23:10;;;;;;;3.13;1.85;;;9.90;99.90;;;;;;5049627;28;20709;-77
2021/10/22 01:25:36;;;;;;;5.57;2.78;;;9.90;99.90;;;;;;5049500;28;20200;-77
2021/10/22 01:28:04;;;;;;;3.42;2.42;;;9.90;99.90;;;;;;5030525;28;20241;-77
2021/10/22 01:30:31;;;;;;;4.57;2.53;;;9.80;99.90;;;;;;5029407;28;20174;-77
2021/10/22 01:33:08;;;;;;;1.50;1.38;;;9.90;99.90;;;;;;5029964;28;20567;-78
2021/10/22 01:35:34;;;;;;;2.17;1.35;;;9.80;99.90;;;;;;5013248;28;20201;-78
2021/10/22 01:38:02;;;;;;;2.03;1.40;;;9.80;99.90;;;;;;5030490;28;20162;-78
2021/10/22 01:40:29;;;;;;;1.65;1.35;;;9.90;99.90;;;;;;5030546;28;20177;-77
2021/10/22 01:42:55;;;;;;;2.03;1.13;;;9.80;99.90;;;;;;5011451;28;20225;-77
2021/10/22 01:45:22;;;;;;;2.83;1.15;;;9.90;99.90;;;;;;5011679;28;20269;-77
2021/10/22 01:47:48;;;;;;;2.47;1.48;;;9.90;99.90;;;;;;5011611;28;20167;-77
2021/10/22 01:50:15;;;;;;;6.25;3.67;;;10.00;99.90;;;;;;5029307;28;20174;-77
2021/10/22 01:52:40;;;;;;;10.20;4.72;;;10.00;99.90;;;;;;5011455;28;20650;-77
2021/10/22 01:55:08;;;;;;;4.05;2.38;;;9.80;99.90;;;;;;5029035;28;20281;-77
2021/10/22 01:57:35;;;;;;;8.68;4.85;;;9.70;99.90;;;;;;5011302;28;20181;-78
2021/10/22 02:00:00;;;;;;;4.85;2.90;;;9.80;99.90;;;;;;5011617;28;20522;-78
2021/10/22 02:02:26;;;;;;;5.63;3.67;;;9.80;99.90;;;;;;5011231;28;20247;-78
2021/10/22 02:04:52;;;;;;;5.32;3.00;;;9.50;99.90;;;;;;5029047;28;20198;-79
2021/10/22 02:07:19;;;;;;;3.33;1.67;;;9.50;99.90;;;;;;5011081;28;20173;-80
2021/10/22 02:09:45;;;;;;;3.00;1.75;;;9.40;99.90;;;;;;5028545;28;20166;-79
2021/10/22 02:12:11;;;;;;;5.80;1.55;;;9.40;99.90;;;;;;5028894;28;20181;-76
2021/10/22 02:14:37;;;;;;;2.42;1.67;;;9.30;99.90;;;;;;5028802;28;20154;-76
2021/10/22 02:17:03;;;;;;;1.90;1.38;;;9.30;99.90;;;;;;5011008;28;20481;-76
2021/10/22 02:19:29;;;;;;;1.98;1.27;;;9.20;99.90;;;;;;5011190;28;20169;-76
2021/10/22 02:21:55;;;;;;;4.95;2.92;;;9.30;99.90;;;;;;5028782;28;20227;-77
2021/10/22 02:24:21;;;;;;;7.40;3.72;;;9.30;99.90;;;;;;5011010;28;20174;-77
2021/10/22 02:26:47;;;;;;;8.43;2.83;;;9.20;99.90;;;;;;5011160;28;20208;-77
2021/10/22 02:29:13;;;;;;;3.78;2.20;;;9.00;99.90;;;;;;5011031;28;20576;-77
2021/10/22 02:31:40;;;;;;;9.00;3.88;;;9.00;99.90;;;;;;5028881;28;20556;-77
2021/10/22 02:34:06;;;;;;;4.28;2.20;;;8.90;99.90;;;;;;5028823;28;20173;-78
2021/10/22 02:36:31;;;;;;;6.43;3.53;;;8.80;99.90;;;;;;5044024;28;20209;-79
2021/10/22 02:38:57;;;;;;;4.40;2.53;;;8.80;99.90;;;;;;5048157;28;20165;-76
2021/10/22 02:41:24;;;;;;;7.72;4.72;;;8.80;99.90;;;;;;5048486;28;20188;-80
2021/10/22 02:43:50;;;;;;;6.97;3.35;;;8.70;99.90;;;;;;5047950;28;20228;-78
2021/10/22 02:46:17;;;;;;;3.30;1.60;;;8.70;99.90;;;;;;5048021;28;20189;-77
2021/10/22 02:48:44;;;;;;;4.78;2.28;;;8.80;99.90;;;;;;5048088;28;20154;-77
2021/10/22 02:51:10;;;;;;;5.72;3.20;;;8.90;99.90;;;;;;5030252;28;20192;-77
2021/10/22 02:53:36;;;;;;;7.75;4.72;;;8.90;99.90;;;;;;5048184;28;20223;-78
2021/10/22 02:56:02;;;;;;;5.95;3.45;;;8.80;99.90;;;;;;5048170;28;20189;-76
2021/10/22 02:58:28;;;;;;;8.18;4.03;;;8.80;99.90;;;;;;5048330;28;20181;-75
2021/10/22 03:00:54;;;;;;;7.45;3.40;;;8.80;99.90;;;;;;5048348;28;20229;-78
2021/10/22 03:03:19;;;;;;;3.63;2.55;;;8.80;99.90;;;;;;5030508;28;20209;-76
2021/10/22 03:05:45;;;;;;;3.15;2.15;;;8.80;99.90;;;;;;5030320;28;20188;-76
2021/10/22 03:08:11;;;;;;;10.75;5.72;;;8.70;99.90;;;;;;5048097;28;20210;-75
2021/10/22 03:10:38;;;;;;;8.93;3.42;;;8.60;99.90;;;;;;5047855;28;20269;-77
2021/10/22 03:13:04;;;;;;;5.97;3.17;;;8.60;99.90;;;;;;5030172;28;20187;-77
2021/10/22 03:15:30;;;;;;;6.57;2.83;;;8.50;99.90;;;;;;5030078;28;20217;-77
2021/10/22 03:17:56;;;;;;;8.07;4.10;;;8.50;99.90;;;;;;5030165;28;20169;-77
2021/10/22 03:20:22;;;;;;;5.50;3.53;;;8.40;99.90;;;;;;5030246;28;20173;-76
2021/10/22 03:22:47;;;;;;;5.68;2.47;;;8.40;99.90;;;;;;5047624;28;20195;-76
2021/10/22 03:25:14;;;;;;;5.38;2.15;;;8.50;99.90;;;;;;5047922;28;20303;-78
2021/10/22 03:27:41;;;;;;;5.78;2.17;;;8.50;99.90;;;;;;5048003;28;20219;-78
2021/10/22 03:30:09;;;;;;;5.90;2.13;;;8.50;99.90;;;;;;5048027;28;20153;-78
2021/10/22 03:32:35;;;;;;;5.22;2.67;;;8.50;99.90;;;;;;5030026;28;20177;-76
2021/10/22 03:35:03;;;;;;;3.05;2.35;;;8.60;99.90;;;;;;5047714;28;20197;-78
2021/10/22 03:37:29;;;;;;;7.85;3.88;;;8.50;99.90;;;;;;5047902;28;20191;-76
2021/10/22 03:39:55;;;;;;;6.88;3.00;;;8.50;99.90;;;;;;5029904;28;20177;-77
2021/10/22 03:42:22;;;;;;;5.40;3.58;;;8.60;99.90;;;;;;5050296;28;20188;-76
2021/10/22 03:44:48;;;;;;;7.63;4.00;;;8.50;99.90;;;;;;5052067;28;20208;-76
2021/10/22 03:47:15;;;;;;;6.65;3.70;;;8.50;99.90;;;;;;5033821;28;20177;-78
2021/10/22 03:49:42;;;;;;;5.75;3.95;;;8.60;99.90;;;;;;5033880;28;20241;-77
2021/10/22 03:52:08;;;;;;;8.35;3.95;;;8.50;99.90;;;;;;5052476;28;20157;-76
2021/10/22 03:54:33;;;;;;;5.03;3.05;;;8.60;99.90;;;;;;5052614;28;20264;-76
2021/10/22 03:56:59;;;;;;;8.02;3.88;;;8.70;99.90;;;;;;5052227;28;20166;-76
2021/10/22 03:59:25;;;;;;;7.78;2.83;;;8.80;99.90;;;;;;5051353;28;20245;-77
2021/10/22 04:01:51;;;;;;;4.35;2.75;;;8.80;99.90;;;;;;5051392;28;20157;-76
2021/10/22 04:04:17;;;;;;;5.65;2.90;;;8.90;99.90;;;;;;5051308;28;20213;-75
2021/10/22 04:06:43;;;;;;;7.53;2.95;;;8.90;99.90;;;;;;5051351;28;20188;-76
2021/10/22 04:09:10;;;;;;;14.40;6.82;;;8.90;99.90;;;;;;5051099;28;20157;-78
2021/10/22 04:11:36;;;;;;;6.55;4.00;;;8.80;99.90;;;;;;5051325;28;20619;-78
2021/10/22 04:14:03;;;;;;;3.78;2.83;;;8.80;99.90;;;;;;5051195;28;20204;-76
2021/10/22 04:16:29;;;;;;;6.13;4.20;;;8.80;99.90;;;;;;5051180;28;20208;-77
2021/10/22 04:18:55;;;;;;;5.18;3.15;;;8.80;99.90;;;;;;5033026;28;20328;-76
2021/10/22 04:21:20;;;;;;;6.32;3.20;;;8.80;99.90;;;;;;5051036;28;20165;-77
2021/10/22 04:23:46;;;;;;;6.68;3.95;;;8.70;99.90;;;;;;5033379;28;20304;-77
2021/10/22 04:26:13;;;;;;;10.85;4.13;;;8.60;99.90;;;;;;5033272;28;20717;-76
2021/10/22 04:28:39;;;;;;;3.30;2.25;;;8.60;99.90;;;;;;5033213;28;20165;-75
2021/10/22 04:31:05;;;;;;;7.53;3.67;;;8.60;99.90;;;;;;5032897;28;20252;-75
2021/10/22 04:33:31;;;;;;;9.75;4.90;;;8.60;99.90;;;;;;5050720;28;20162;-75
2021/10/22 04:35:57;;;;;;;15.07;6.07;;;8.60;99.90;;;;;;5050790;28;20177;-76
2021/10/22 04:40:52;;;;;;;7.32;4.07;;;8.40;99.90;;;;;;5050618;28;20184;-75
2021/10/22 04:43:19;;;;;;;10.90;5.47;;;8.40;99.90;;;;;;5032593;28;20200;-76
2021/10/22 04:45:50;;;;;;;6.88;3.67;;;8.50;99.90;;;;;;5050555;28;20164;-75
2021/10/22 04:48:16;;;;;;;10.43;5.07;;;8.40;99.90;;;;;;5032325;28;20201;-75
2021/10/22 04:50:50;;;;;;;11.13;6.40;;;8.40;99.90;;;;;;5050248;28;20180;-75
2021/10/22 04:53:17;;;;;;;13.13;7.05;;;8.50;99.90;;;;;;5030957;28;20225;-76
2021/10/22 04:55:43;;;;;;;16.55;8.02;;;8.50;99.90;;;;;;5032395;28;20181;-76
2021/10/22 04:58:09;;;;;;;9.38;5.13;;;8.50;99.90;;;;;;5049953;28;20177;-76
2021/10/22 05:00:35;;;;;;;4.97;3.65;;;8.50;99.90;;;;;;5032102;28;20177;-76
2021/10/22 05:03:02;;;;;;;4.68;3.47;;;8.60;99.90;;;;;;5031859;28;20205;-76
2021/10/22 05:05:28;;;;;;;7.15;3.30;;;8.60;99.90;;;;;;5049911;28;20158;-77
2021/10/22 05:07:54;;;;;;;3.15;2.30;;;8.70;99.90;;;;;;5049854;28;20187;-76
2021/10/22 05:10:20;;;;;;;9.60;5.32;;;8.70;99.90;;;;;;5049655;28;20212;-77
2021/10/22 05:12:46;;;;;;;14.15;6.63;;;8.70;99.90;;;;;;5031795;28;20285;-77
2021/10/22 05:15:14;;;;;;;10.63;5.45;;;8.70;99.90;;;;;;5031850;28;20169;-76
2021/10/22 05:17:40;;;;;;;6.18;3.53;;;8.60;99.90;;;;;;5049368;28;20166;-76
2021/10/22 05:20:09;;;;;;;14.18;5.13;;;8.60;99.90;;;;;;5031581;28;20272;-75
2021/10/22 05:22:36;;;;;;;4.47;2.90;;;8.60;99.90;;;;;;5049647;28;20201;-78
2021/10/22 05:25:07;;;;;;;8.75;5.00;;;8.60;99.90;;;;;;5031603;28;20173;-76
2021/10/22 05:27:34;;;;;;;11.52;4.47;;;8.60;99.90;;;;;;5031456;28;20173;-76
2021/10/22 05:30:00;;;;;;;5.85;3.25;;;8.60;99.90;;;;;;5031695;28;20177;-76
2021/10/22 05:32:26;;;;;;;5.70;3.30;;;8.60;99.90;;;;;;5030992;28;20213;-75
2021/10/22 05:34:52;;;;;;;5.78;2.70;;;8.50;99.90;;;;;;5021302;28;20193;-76
2021/10/22 05:37:18;;;;;;;8.63;2.83;;;8.40;99.90;;;;;;5041884;28;20173;-77
2021/10/22 05:39:44;;;;;;;5.07;2.40;;;8.50;99.90;;;;;;5042005;28;20200;-76
2021/10/22 05:42:10;;;;;;;5.15;2.28;;;8.50;99.90;;;;;;5022940;28;20197;-76
2021/10/22 05:44:36;;;;;;;4.18;2.40;;;8.60;99.90;;;;;;5042769;28;20207;-76
2021/10/22 05:47:02;;;;;;;5.07;2.78;;;8.60;99.90;;;;;;5035595;28;20182;-77
2021/10/22 05:49:28;;;;;;;3.85;2.33;;;8.70;99.90;;;;;;5045541;28;20165;-77
2021/10/22 05:51:54;;;;;;;5.10;3.20;;;8.70;99.90;;;;;;5033338;28;20190;-75
2021/10/22 05:54:20;;;;;;;3.72;2.50;;;8.80;99.90;;;;;;5040871;28;20248;-75
2021/10/22 05:56:47;;;;;;;6.00;3.90;;;8.90;99.90;;;;;;5021369;28;20179;-75
2021/10/22 05:59:13;;;;;;;7.72;4.57;;;9.00;99.90;;;;;;5035906;28;20194;-77
2021/10/22 06:01:40;;;;;;;8.25;4.82;;;9.10;99.90;;;;;;5012868;28;20197;-76
2021/10/22 06:04:05;;;;;;;6.55;3.83;;;9.10;99.90;;;;;;5045153;28;20596;-76
2021/10/22 06:06:31;;;;;;;9.13;3.53;;;9.10;99.90;;;;;;5016267;28;20185;-75
2021/10/22 06:08:59;;;;;;;7.80;4.72;;;9.20;99.90;;;;;;5041570;28;20170;-74
2021/10/22 06:11:25;;;;;;;6.60;4.20;;;9.30;99.90;;;;;;5034127;28;20232;-76
2021/10/22 06:13:50;;;;;;;8.02;4.18;;;9.30;99.90;;;;;;5044189;28;20170;-75
2021/10/22 06:16:17;;;;;;;5.25;3.47;;;9.30;99.90;;;;;;5036332;28;20284;-76
2021/10/22 06:18:50;;;;;;;10.20;3.28;;;9.40;99.90;;;;;;5019122;28;20174;-75
2021/10/22 06:21:33;;;;;;;5.80;3.80;;;9.50;99.90;;;;;;5026324;28;20208;-75
2021/10/22 06:26:28;;;;;;;9.00;3.08;;;9.60;99.90;;;;;;5040282;28;20169;-75
2021/10/22 06:28:54;;;;;;;8.15;3.80;;;9.80;99.90;;;;;;5016924;28;20189;-76
2021/10/22 06:31:22;;;;;;;9.15;3.80;;;9.80;99.90;;;;;;5020661;28;20193;-79
2021/10/22 06:33:48;;;;;;;14.52;3.90;;;9.70;99.90;;;;;;5041967;28;20176;-76
2021/10/22 06:36:14;;;;;;;4.63;3.22;;;9.60;99.90;;;;;;5031340;28;20448;-76
2021/10/22 06:38:40;;;;;;;5.13;2.92;;;9.60;99.90;;;;;;5028372;28;20170;-75
2021/10/22 06:41:10;;;;;;;6.45;3.55;;;9.80;99.90;;;;;;5011039;28;20240;-76
2021/10/22 06:43:40;;;;;;;11.40;3.75;;;10.00;99.90;;;;;;5028493;28;20197;-77
2021/10/22 06:46:08;;;;;;;10.32;4.20;;;10.20;99.90;;;;;;5010132;28;20177;-76
2021/10/22 06:48:35;;;;;;;7.68;4.05;;;10.20;99.90;;;;;;5028753;28;20226;-77
2021/10/22 06:51:02;;;;;;;7.38;3.65;;;10.20;99.90;;;;;;5010631;28;20166;-76
2021/10/22 06:53:28;;;;;;;4.50;2.65;;;10.30;99.90;;;;;;5028154;28;20248;-76
2021/10/22 06:55:54;;;;;;;6.35;3.45;;;10.50;99.90;;;;;;5028024;28;20178;-76
2021/10/22 06:58:20;;;;;;;4.28;2.65;;;10.50;99.90;;;;;;5010180;28;20201;-76
2021/10/22 07:00:49;;;;;;;8.85;3.70;;;10.50;99.90;;;;;;5028128;28;20185;-76
2021/10/22 07:03:20;;;;;;;4.88;3.88;;;10.60;99.90;;;;;;5027969;28;20548;-76
2021/10/22 07:08:13;;;;;;;8.02;4.13;;;10.60;99.90;;;;;;5028184;28;20257;-76
2021/10/22 07:10:40;;;;;;;5.43;2.92;;;10.50;99.90;;;;;;5028171;28;20181;-75
2021/10/22 07:13:07;;;;;;;9.95;3.92;;;10.70;99.90;;;;;;5010517;28;20177;-75
2021/10/22 07:15:33;;;;;;;8.38;4.03;;;10.80;99.90;;;;;;5027822;28;20170;-76
2021/10/22 07:18:00;;;;;;;5.00;3.17;;;11.00;99.90;;;;;;5027616;28;20198;-76
2021/10/22 07:20:30;;;;;;;5.10;3.25;;;11.20;99.90;;;;;;5010242;28;20180;-77
2021/10/22 07:23:04;;;;;;;3.95;2.92;;;11.20;99.90;;;;;;5027910;28;20328;-76
2021/10/22 07:25:32;;;;;;;5.45;3.13;;;11.30;99.90;;;;;;5028236;28;20192;-76
2021/10/22 07:28:05;;;;;;;3.45;2.50;;;11.40;99.90;;;;;;5027930;28;20193;-76
2021/10/22 07:30:31;;;;;;;3.72;2.90;;;11.50;99.90;;;;;;5010637;28;20257;-77
2021/10/22 07:32:57;;;;;;;6.45;3.08;;;11.50;99.90;;;;;;5028839;28;20162;-77
2021/10/22 07:35:23;;;;;;;8.32;3.25;;;11.50;99.90;;;;;;5028746;28;20166;-78
2021/10/22 07:37:49;;;;;;;7.00;3.35;;;11.50;99.90;;;;;;5028155;28;20193;-76
2021/10/22 07:40:15;;;;;;;11.35;3.83;;;11.40;99.90;;;;;;5027728;28;20261;-76
2021/10/22 07:42:41;;;;;;;6.32;3.33;;;11.50;99.90;;;;;;5010189;28;20209;-76
2021/10/22 07:45:08;;;;;;;6.70;2.85;;;11.70;99.90;;;;;;5027811;28;20181;-76
2021/10/22 07:47:36;;;;;;;4.65;2.92;;;12.10;99.90;;;;;;5010105;28;20193;-76
2021/10/22 07:50:05;;;;;;;9.57;3.00;;;12.50;99.90;;;;;;5010167;28;20204;-76
2021/10/22 07:52:32;;;;;;;5.32;2.65;;;12.70;99.90;;;;;;5027896;28;20223;-76
2021/10/22 07:54:59;;;;;;;8.73;3.78;;;12.60;99.90;;;;;;5044192;28;20275;-76
2021/10/22 07:57:29;;;;;;;5.18;3.50;;;12.90;99.90;;;;;;5047495;28;20217;-76
2021/10/22 07:59:56;;;;;;;3.30;2.38;;;13.10;99.90;;;;;;5047481;28;20174;-76
2021/10/22 08:02:22;;;;;;;3.97;2.30;;;13.60;99.90;;;;;;5045593;28;20208;-75
2021/10/22 08:04:50;;;;;;;5.65;3.40;;;14.40;99.90;;;;;;5045926;28;20553;-75
2021/10/22 08:07:21;;;;;;;4.53;3.00;;;15.50;99.90;;;;;;5047364;28;20165;-75
2021/10/22 08:09:50;;;;;;;4.35;2.85;;;15.70;99.90;;;;;;5047511;28;20268;-77
2021/10/22 08:12:18;;;;;;;3.30;2.55;;;16.50;99.90;;;;;;5047278;28;20164;-76
2021/10/22 08:14:46;;;;;;;3.70;2.60;;;16.90;99.90;;;;;;5046042;28;20193;-76
2021/10/22 08:17:14;;;;;;;3.97;3.03;;;18.70;99.90;;;;;;5047264;28;20158;-77
2021/10/22 08:19:40;;;;;;;4.57;3.50;;;18.60;99.90;;;;;;5046131;28;20178;-77
2021/10/22 08:22:27;;;;;;;4.05;2.80;;;17.60;99.90;;;;;;5047586;28;20204;-77
2021/10/22 08:25:06;;;;;;;5.32;2.70;;;16.30;99.90;;;;;;5047148;28;20170;-76
2021/10/22 08:27:35;;;;;;;3.97;3.13;;;15.80;99.90;;;;;;5046817;28;20197;-77
2021/10/22 08:30:04;;;;;;;5.63;2.58;;;15.20;99.90;;;;;;5050682;28;20178;-77
2021/10/22 08:32:32;;;;;;;3.78;2.40;;;14.90;99.90;;;;;;5049849;28;20241;-76
2021/10/22 08:35:08;;;;;;;7.13;2.08;;;14.60;99.90;;;;;;5050800;28;20161;-76
2021/10/22 08:37:38;;;;;;;4.25;2.30;;;14.20;99.90;;;;;;5050759;28;20193;-75
2021/10/22 08:40:06;;;;;;;2.30;1.98;;;14.00;99.90;;;;;;5051194;28;20191;-76
2021/10/22 08:42:33;;;;;;;4.65;2.05;;;13.90;99.90;;;;;;5050899;28;20197;-76
2021/10/22 08:44:59;;;;;;;3.70;2.13;;;13.70;99.90;;;;;;5049679;28;20165;-77
2021/10/22 08:47:29;;;;;;;3.80;1.80;;;13.30;99.90;;;;;;5051252;28;20156;-75
2021/10/22 08:50:08;;;;;;;4.82;2.85;;;12.90;99.90;;;;;;5050815;28;20173;-75
2021/10/22 08:52:35;;;;;;;2.30;2.10;;;12.50;99.90;;;;;;5050696;28;20265;-75
2021/10/22 08:55:03;;;;;;;2.60;2.00;;;12.50;99.90;;;;;;5049184;28;20225;-75
2021/10/22 08:57:29;;;;;;;4.07;2.35;;;12.70;99.90;;;;;;5050358;28;20595;-77
2021/10/22 08:59:58;;;;;;;3.83;1.98;;;12.50;99.90;;;;;;5050307;28;20233;-75
2021/10/22 09:02:25;;;;;;;4.85;2.03;;;12.70;99.90;;;;;;5050028;28;20225;-75
2021/10/22 09:04:59;;;;;;;2.92;2.28;;;12.80;99.90;;;;;;5049988;28;20260;-75
2021/10/22 09:07:43;;;;;;;4.90;2.38;;;14.00;99.90;;;;;;5067951;28;20180;-75
2021/10/22 09:10:22;;;;;;;2.90;1.80;;;14.50;99.90;;;;;;5069628;28;20188;-75
2021/10/22 09:12:57;;;;;;;3.70;2.47;;;14.30;99.90;;;;;;5069704;28;20191;-74
2021/10/22 09:15:28;;;;;;;1.92;1.70;;;14.00;99.90;;;;;;5069401;28;20158;-74
2021/10/22 09:17:59;;;;;;;3.78;1.38;;;14.10;99.90;;;;;;5068249;28;20204;-74
2021/10/22 09:20:28;;;;;;;3.42;1.70;;;14.10;99.90;;;;;;5068344;28;20180;-76
2021/10/22 09:22:57;;;;;;;1.95;1.25;;;14.10;99.90;;;;;;5063428;28;20535;-76
2021/10/22 09:25:26;;;;;;;2.95;1.55;;;14.60;99.90;;;;;;5069776;28;20182;-77
2021/10/22 09:27:57;;;;;;;3.80;1.13;;;14.90;99.90;;;;;;5070547;28;20195;-78
2021/10/22 09:30:23;;;;;;;3.05;1.42;;;14.90;99.90;;;;;;5068216;28;20169;-78
2021/10/22 09:32:54;;;;;;;3.78;1.88;;;14.30;99.90;;;;;;5064982;28;20279;-76
2021/10/22 09:35:56;;;;;;;3.17;1.83;;;13.90;99.90;;;;;;5068825;28;20176;-76
2021/10/22 09:38:27;;;;;;;2.55;1.92;;;14.30;99.90;;;;;;4987982;28;20199;-76
2021/10/22 09:41:07;;;;;;;6.20;1.60;;;14.40;99.90;;;;;;4987933;28;20201;-75
2021/10/22 09:43:36;;;;;;;3.92;1.88;;;14.30;99.90;;;;;;4984056;28;20229;-75
2021/10/22 09:46:16;;;;;;;7.43;2.08;;;14.20;99.90;;;;;;5006937;28;20171;-76
2021/10/22 09:48:45;;;;;;;1.83;1.30;;;14.30;99.90;;;;;;4985398;28;20583;-76
2021/10/22 09:51:29;;;;;;;4.20;1.90;;;14.70;99.90;;;;;;4984084;28;20203;-78
2021/10/22 09:54:12;;;;;;;3.90;1.90;;;15.10;99.90;;;;;;4968935;28;20239;-78
2021/10/22 09:56:43;;;;;;;5.97;1.40;;;15.20;99.90;;;;;;4993758;28;20174;-78
2021/10/22 09:59:11;;;;;;;2.55;1.33;;;15.80;99.90;;;;;;5005455;28;20195;-76
2021/10/22 10:01:44;;;;;;;5.28;1.40;;;17.60;99.90;;;;;;5006842;28;20201;-77
2021/10/22 10:04:14;;;;;;;1.92;1.15;;;19.30;99.90;;;;;;4982755;28;20194;-79
2021/10/22 10:06:44;;;;;;;2.17;1.20;;;20.00;99.90;;;;;;5007121;28;20186;-78
2021/10/22 10:09:12;;;;;;;1.85;1.50;;;21.80;99.90;;;;;;4985063;28;20226;-78
2021/10/22 10:11:39;;;;;;;3.83;1.90;;;22.30;99.90;;;;;;4975344;28;20192;-78
2021/10/22 10:14:07;;;;;;;2.47;1.50;;;22.90;99.90;;;;;;5047163;28;20218;-78
2021/10/22 10:16:34;;;;;;;1.88;1.52;;;23.60;99.90;;;;;;5087199;28;20170;-75
2021/10/22 10:19:07;;;;;;;3.70;1.60;;;24.40;99.90;;;;;;5088834;28;20194;-76
2021/10/22 10:21:40;;;;;;;4.47;1.65;;;23.00;99.90;;;;;;5089956;28;20648;-75
2021/10/22 10:24:07;;;;;;;3.17;1.73;;;23.80;99.90;;;;;;5088856;28;20366;-75
2021/10/22 10:26:35;;;;;;;2.47;1.42;;;23.60;99.90;;;;;;5089438;28;20646;-75
2021/10/22 10:29:04;;;;;;;3.03;1.52;;;22.60;99.90;;;;;;5086959;28;20227;-75
2021/10/22 10:31:39;;;;;;;1.73;1.40;;;22.40;99.90;;;;;;5088220;28;20156;-75
2021/10/22 10:34:27;;;;;;;2.70;1.40;;;20.20;99.90;;;;;;5086992;28;20207;-75
2021/10/22 10:36:55;;;;;;;1.60;1.20;;;18.90;99.90;;;;;;5086142;28;20190;-78
2021/10/22 10:39:45;;;;;;;2.13;1.75;;;19.10;99.90;;;;;;5086813;28;20171;-75
2021/10/22 10:42:34;;;;;;;6.10;1.73;;;18.90;99.90;;;;;;5086773;28;20550;-75
2021/10/22 10:45:09;;;;;;;2.28;1.85;;;18.80;99.90;;;;;;5086721;28;20210;-75
2021/10/22 10:47:44;;;;;;;2.70;1.83;;;18.90;99.90;;;;;;5076379;28;20211;-76
2021/10/22 10:50:12;;;;;;;3.72;2.13;;;19.30;99.90;;;;;;5078492;28;20164;-76
2021/10/22 10:52:38;;;;;;;3.80;1.75;;;18.10;99.90;;;;;;5078080;28;20204;-78
2021/10/22 10:55:11;;;;;;;2.95;1.88;;;16.80;99.90;;;;;;5067804;28;20203;-76
2021/10/22 10:57:51;;;;;;;5.97;2.28;;;16.50;99.90;;;;;;5083832;28;20175;-79
2021/10/22 11:00:32;;;;;;;7.60;1.98;;;17.30;99.90;;;;;;5087104;28;20168;-76
2021/10/22 11:03:07;;;;;;;3.28;2.28;;;17.30;99.90;;;;;;5080394;28;20204;-76
2021/10/22 11:05:46;;;;;;;3.08;1.95;;;16.40;99.90;;;;;;5066062;28;20168;-77
2021/10/22 11:08:18;;;;;;;3.53;2.13;;;15.70;99.90;;;;;;5067068;28;20145;-76
2021/10/22 11:11:33;;;;;;;4.88;2.45;;;15.40;99.90;;;;;;5067214;28;20196;-78
2021/10/22 11:14:06;;;;;;;2.58;2.13;;;14.80;99.90;;;;;;5065284;28;20259;-77
2021/10/22 11:16:45;;;;;;;5.47;2.80;;;14.70;99.90;;;;;;5067765;28;20179;-78
2021/10/22 11:19:20;;;;;;;4.88;2.22;;;15.90;99.90;;;;;;5067061;28;20196;-79
2021/10/22 11:21:52;;;;;;;3.85;2.25;;;16.30;99.90;;;;;;5067174;28;20263;-78
2021/10/22 11:24:25;;;;;;;3.75;2.58;;;15.60;99.90;;;;;;5055355;28;20200;-78
2021/10/22 11:27:01;;;;;;;2.53;2.33;;;15.00;99.90;;;;;;5067315;28;20188;-78
2021/10/22 11:29:29;;;;;;;4.35;2.42;;;14.50;99.90;;;;;;5067464;28;20680;-77
2021/10/22 11:31:58;;;;;;;5.32;2.42;;;14.40;99.90;;;;;;5066122;28;20179;-78
2021/10/22 11:34:27;;;;;;;4.30;2.90;;;15.00;99.90;;;;;;5065832;28;20173;-75
2021/10/22 11:37:15;;;;;;;4.82;3.05;;;15.80;99.90;;;;;;5065317;28;20306;-75
2021/10/22 11:39:46;;;;;;;3.05;2.30;;;16.50;99.90;;;;;;5071561;28;20183;-76
2021/10/22 11:42:16;;;;;;;2.83;2.15;;;17.00;99.90;;;;;;5049069;28;20183;-77
2021/10/22 11:44:59;;;;;;;2.97;2.22;;;17.70;99.90;;;;;;5063432;28;20188;-77
2021/10/22 11:47:41;;;;;;;2.95;2.35;;;19.10;99.90;;;;;;5065737;28;20196;-77
2021/10/22 11:50:26;;;;;;;2.90;2.25;;;18.70;99.90;;;;;;5066114;28;20184;-79
2021/10/22 11:53:13;;;;;;;3.95;2.58;;;18.40;99.90;;;;;;5064730;28;20160;-78
2021/10/22 11:55:39;;;;;;;3.33;1.83;;;18.80;99.90;;;;;;5029220;28;20183;-77
2021/10/22 11:58:10;;;;;;;2.78;1.83;;;20.00;99.90;;;;;;5029388;28;20197;-77
2021/10/22 12:00:55;;;;;;;3.92;2.13;;;20.50;99.90;;;;;;5047349;28;20170;-78
2021/10/22 12:03:41;;;;;;;3.85;2.33;;;19.50;99.90;;;;;;5047285;28;20294;-77
2021/10/22 12:06:28;;;;;;;5.00;1.85;;;19.10;99.90;;;;;;5033149;28;20176;-79
2021/10/22 12:08:54;;;;;;;4.68;2.03;;;20.10;99.90;;;;;;5023490;28;20277;-79
2021/10/22 12:11:24;;;;;;;2.28;2.00;;;19.30;99.90;;;;;;5028197;28;20173;-82
2021/10/22 12:13:52;;;;;;;4.55;2.15;;;18.40;99.90;;;;;;5051906;28;20184;-82
2021/10/22 12:16:31;;;;;;;3.67;2.20;;;18.30;99.90;;;;;;5051799;28;20225;-81
2021/10/22 12:18:59;;;;;;;2.60;1.80;;;17.20;99.90;;;;;;5051428;28;20208;-81
2021/10/22 12:21:26;;;;;;;4.35;2.30;;;16.20;99.90;;;;;;5032768;28;20211;-82
2021/10/22 12:23:57;;;;;;;2.22;2.03;;;16.20;99.90;;;;;;5050331;28;20186;-81
2021/10/22 12:26:32;;;;;;;5.80;2.22;;;16.10;99.90;;;;;;5050498;28;20241;-83
2021/10/22 12:29:01;;;;;;;3.40;2.28;;;15.60;99.90;;;;;;5050101;28;20327;-81
2021/10/22 12:31:50;;;;;;;6.22;2.35;;;15.50;99.90;;;;;;5050877;28;20153;-82
2021/10/22 12:34:31;;;;;;;6.72;2.42;;;15.30;99.90;;;;;;5050357;28;20181;-79
2021/10/22 12:37:12;;;;;;;2.63;2.15;;;15.00;99.90;;;;;;5022832;28;20184;-80
2021/10/22 12:39:43;;;;;;;5.30;1.98;;;14.80;99.90;;;;;;5043750;28;20201;-79
2021/10/22 12:42:30;;;;;;;4.07;2.33;;;14.90;99.90;;;;;;5020588;28;20258;-79
2021/10/22 12:45:32;;;;;;;6.53;2.20;;;15.00;99.90;;;;;;5067634;28;20315;-79
2021/10/22 12:48:07;;;;;;;3.72;2.38;;;14.80;99.90;;;;;;4975980;28;20183;-80
2021/10/22 12:50:35;;;;;;;2.85;2.15;;;14.90;99.90;;;;;;4976556;28;20187;-79
2021/10/22 12:53:07;;;;;;;4.00;2.25;;;14.70;99.90;;;;;;4985027;28;20215;-79
2021/10/22 12:55:33;;;;;;;4.25;2.55;;;14.70;99.90;;;;;;4969743;29;20195;-79
2021/10/22 12:58:32;;;;;;;6.07;2.80;;;14.70;99.90;;;;;;4970012;29;20250;-80
2021/10/22 13:01:15;;;;;;;2.40;1.65;;;14.80;99.90;;;;;;4927162;29;20197;-79
2021/10/22 13:03:57;;;;;;;6.35;2.03;;;14.70;99.90;;;;;;4912347;29;20228;-80
2021/10/22 13:06:31;;;;;;;3.38;2.13;;;14.70;99.90;;;;;;4912619;29;20170;-81
2021/10/22 13:22:31;;;;;;;2.20;1.70;;;14.70;99.90;;;;;;4913101;29;20193;-81